createdAt,value
2017-11-14T01:51:29.144Z,100727
2017-11-14T01:54:16.285Z,100726
2017-11-14T01:56:56.206Z,100723
2017-11-14T02:44:56.296Z,100790
2017-11-14T02:47:27.852Z,100790
2017-11-14T03:43:39.989Z,100855
2017-11-14T03:49:57.703Z,100874
2017-11-14T04:02:00.403Z,100877
2017-11-14T05:43:19.895Z,100982
2017-11-14T05:48:49.219Z,100989
2017-11-14T05:51:23.885Z,100995
2017-11-14T05:53:53.321Z,100992
2017-11-14T06:06:11.957Z,101005
2017-11-14T06:08:52.133Z,101011
2017-11-14T06:11:25.863Z,101013
2017-11-14T06:16:58.515Z,101015
2017-11-14T06:19:28.737Z,101024
2017-11-14T06:21:57.869Z,101036
2017-11-14T06:24:31.784Z,101032
2017-11-14T06:27:29.885Z,101034
2017-11-14T06:33:36.923Z,101014
2017-11-14T08:43:09.025Z,101169
2017-11-14T08:45:37.531Z,101179
2017-11-14T08:57:05.377Z,101170
2017-11-14T08:59:40.005Z,101172
2017-11-14T09:02:18.376Z,101179
2017-11-14T09:07:58.830Z,101168
2017-11-14T09:10:34.867Z,101174
2017-11-14T09:13:13.740Z,101172
2017-11-14T09:16:06.356Z,101172
2017-11-14T09:36:04.447Z,101185
2017-11-14T09:41:26.582Z,101183
2017-11-14T09:44:08.885Z,101186
2017-11-14T18:00:25.557Z,101202
2017-11-14T18:02:54.581Z,101199
2017-11-14T18:05:25.852Z,101198
2017-11-14T18:07:54.187Z,101201
2017-11-14T18:10:22.623Z,101194
2017-11-14T18:12:51.103Z,101194
2017-11-14T18:15:19.369Z,101200
2017-11-14T18:17:48.117Z,101210
2017-11-14T18:20:16.396Z,101203
2017-11-14T18:22:45.317Z,101207
2017-11-14T18:25:13.708Z,101211
2017-11-14T18:27:42.212Z,101222
2017-11-14T18:30:10.500Z,101214
2017-11-14T18:32:38.930Z,101213
2017-11-14T18:35:07.193Z,101220
2017-11-14T18:37:35.507Z,101215
2017-11-14T18:40:03.802Z,101220
2017-11-14T18:42:32.945Z,101227
2017-11-14T18:45:01.360Z,101224
2017-11-14T18:47:29.692Z,101218
2017-11-14T18:49:58.001Z,101224
2017-11-14T18:52:26.654Z,101226
2017-11-14T18:54:55.842Z,101226
2017-11-14T18:57:24.292Z,101231
2017-11-14T18:59:53.520Z,101228
2017-11-14T19:02:21.815Z,101225
2017-11-14T19:04:50.071Z,101222
2017-11-14T19:07:18.476Z,101230
2017-11-14T19:09:46.812Z,101220
2017-11-14T19:12:15.082Z,101214
2017-11-14T19:14:44.321Z,101214
2017-11-14T19:17:12.621Z,101219
2017-11-14T19:19:40.908Z,101222
2017-11-14T19:22:09.211Z,101230
2017-11-14T19:24:38.230Z,101230
2017-11-14T19:27:07.549Z,101230
2017-11-14T19:29:36.459Z,101225
2017-11-14T19:32:05.847Z,101226
2017-11-14T19:34:35.633Z,101233
2017-11-14T19:37:04.009Z,101228
2017-11-14T19:39:32.325Z,101231
2017-11-14T19:42:01.354Z,101235
2017-11-14T19:44:32.344Z,101235
2017-11-14T19:47:00.814Z,101234
2017-11-14T19:49:29.566Z,101242
2017-11-14T19:51:58.684Z,101242
2017-11-14T19:54:26.996Z,101244
2017-11-14T19:56:55.531Z,101234
2017-11-14T19:59:24.094Z,101238
2017-11-14T20:01:53.144Z,101235
2017-11-14T20:04:22.349Z,101232
2017-11-14T20:06:50.891Z,101231
2017-11-14T20:09:19.185Z,101241
2017-11-14T20:11:47.489Z,101233
2017-11-14T20:14:15.814Z,101238
2017-11-14T20:16:46.476Z,101239
2017-11-14T20:19:15.466Z,101239
2017-11-14T20:21:44.127Z,101243
2017-11-14T20:24:12.435Z,101245
2017-11-14T20:26:40.755Z,101250
2017-11-14T20:29:09.025Z,101252
2017-11-14T20:31:38.141Z,101239
2017-11-14T20:34:06.496Z,101236
2017-11-14T20:36:34.770Z,101253
2017-11-14T20:39:02.998Z,101245
2017-11-14T20:41:31.350Z,101249
2017-11-14T20:43:59.650Z,101249
2017-11-14T20:46:28.594Z,101240
2017-11-14T20:49:04.030Z,101240
2017-11-14T20:51:32.496Z,101241
2017-11-14T20:54:00.869Z,101239
2017-11-14T20:56:29.157Z,101239
2017-11-14T20:58:57.509Z,101238
2017-11-14T21:01:25.834Z,101242
2017-11-14T21:03:54.907Z,101249
2017-11-14T21:06:23.179Z,101241
2017-11-14T21:08:51.461Z,101242
2017-11-14T21:11:20.471Z,101237
2017-11-14T21:13:49.586Z,101241
2017-11-14T21:16:18.598Z,101246
2017-11-14T21:18:46.869Z,101246
2017-11-14T21:21:15.205Z,101241
2017-11-14T21:23:43.459Z,101233
2017-11-14T21:26:11.683Z,101244
2017-11-14T21:28:40.030Z,101230
2017-11-14T21:31:08.289Z,101229
2017-11-14T21:33:37.505Z,101224
2017-11-14T21:36:05.782Z,101242
2017-11-14T21:38:34.058Z,101240
2017-11-14T21:41:02.512Z,101237
2017-11-14T21:43:30.925Z,101238
2017-11-14T21:46:00.023Z,101241
2017-11-14T21:48:29.111Z,101244
2017-11-14T21:50:57.374Z,101249
2017-11-14T21:53:25.780Z,101244
2017-11-14T21:55:54.801Z,101240
2017-11-14T21:58:23.056Z,101230
2017-11-14T22:00:51.349Z,101240
2017-11-14T22:03:19.640Z,101244
2017-11-14T22:05:47.931Z,101244
2017-11-14T22:08:16.372Z,101237
2017-11-14T22:10:44.715Z,101237
2017-11-14T22:13:13.809Z,101235
2017-11-14T22:15:42.274Z,101238
2017-11-14T22:18:10.561Z,101237
2017-11-14T22:20:38.900Z,101248
2017-11-14T22:23:07.203Z,101248
2017-11-14T22:25:35.481Z,101250
2017-11-14T22:28:03.761Z,101245
2017-11-14T22:30:32.071Z,101247
2017-11-14T22:33:00.344Z,101252
2017-11-14T22:35:29.362Z,101250
2017-11-14T22:37:57.658Z,101242
2017-11-14T22:40:25.918Z,101254
2017-11-14T22:42:54.220Z,101236
2017-11-14T22:45:22.521Z,101239
2017-11-14T22:47:50.815Z,101234
2017-11-14T22:50:19.851Z,101248
2017-11-14T22:52:48.120Z,101245
2017-11-14T22:55:16.429Z,101241
2017-11-14T22:57:44.712Z,101243
2017-11-14T23:13:47.193Z,101227
2017-11-14T23:16:16.295Z,101233
2017-11-14T23:18:45.298Z,101235
2017-11-14T23:21:13.566Z,101239
2017-11-14T23:23:41.848Z,101248
2017-11-14T23:26:10.107Z,101240
2017-11-14T23:28:40.222Z,101246
2017-11-14T23:31:09.259Z,101248
2017-11-14T23:33:37.601Z,101243
2017-11-14T23:36:06.666Z,101247
2017-11-14T23:38:34.924Z,101253
2017-11-14T23:41:03.199Z,101247
2017-11-14T23:43:31.489Z,101252
2017-11-14T23:45:59.794Z,101255
2017-11-14T23:48:28.878Z,101251
2017-11-14T23:50:57.957Z,101247
2017-11-14T23:53:26.255Z,101241
2017-11-14T23:55:55.338Z,101255
2017-11-14T23:58:23.697Z,101259
